This is the latest recevied weather packets stored in our database for station/object LRTM. If no packets are shown the sender has not sent any weather packets the latest 1 day(s).
| Time | Temp. | Humidity | Pressure | Rain* | Wind** | Luminosity | Snow |
|---|---|---|---|---|---|---|---|
| 1778041108 | 7.78° C | 82% | 1014 hPa | - | - | - | - |
| 1778040206 | 7.78° C | 82% | 1014 hPa | - | - | - | - |
| 1778039307 | 6.11° C | 87% | 1014 hPa | - | - | - | - |
| 1778038406 | 6.11° C | 87% | 1014 hPa | - | - | - | - |
| 1778037506 | 6.11° C | 87% | 1014 hPa | - | - | - | - |
| 1778036606 | 6.11° C | 87% | 1014 hPa | - | - | - | - |
| 1778035706 | 6.11° C | 87% | 1013 hPa | - | - | - | - |
| 1778034806 | 6.11° C | 87% | 1013 hPa | - | - | - | - |
| 1778033906 | 6.11° C | 87% | 1013 hPa | - | - | - | - |
| 1778032106 | 6.11° C | 87% | 1013 hPa | - | - | - | - |
| 1778031206 | 6.11° C | 87% | 1013 hPa | - | - | - | - |
| 1778030307 | 7.22° C | 81% | 1013 hPa | - | - | - | - |
| 1778027685 | 7.78° C | 82% | 1013 hPa | - | - | - | - |
| 1778026707 | 7.78° C | 82% | 1013 hPa | - | - | - | - |
| 1778024006 | 8.89° C | 76% | 1013 hPa | - | - | - | - |
| 1778015906 | 8.89° C | 71% | 1013 hPa | - | - | - | - |
| 1778013206 | 10° C | 67% | 1013 hPa | - | - | - | - |
| 1778011407 | 12.22° C | 63% | 1012 hPa | - | - | - | - |
| 1778007806 | 13.89° C | 59% | 1012 hPa | - | - | - | - |
| 1778006907 | 15° C | 55% | 1012 hPa | - | - | - | - |
| 1778006007 | 15° C | 55% | 1012 hPa | - | - | - | - |
* Rain since midnight (hover to see other rain measurements)
** Current wind speed in m/s (hover to see current wind gust speed)